Virginiborg — PBDL — position and weather

sailwx.info

Track history (hours):
 
Tides and Currents Weather Stations Pressure Air Temp Water Temp Dewpoint Dewpoint Depression Visibility Wind Speed Wind Dir Waves Ship Positions

Virginiborg

Last reported at 2014-Aug-23 03:04 UTC. Time now 2014-Sep-01 18:51 UTC.
Position N 55°56' E 016°21'.
Warning: this ship's position is 9 days out of date.

Length 132 m; draft 8 m.

Type: Cargo ship. MMSI: 244632000.

Date/timePositionNaut miles runAvg speedWind from/ knotsBaromVisibWave heightAir tempDewpointWater temp
2014-Aug-23 03:04N 55°56' E 016°21'3512.3
2014-Aug-23 00:12N 55°39' E 015°26'812.4
2014-Aug-22 23:32N 55°35' E 015°13'1212.4
2014-Aug-22 22:32N 55°29' E 014°54'1212.3
2014-Aug-22 21:33N 55°22' E 014°37'1312.5
2014-Aug-22 20:33N 55°12' E 014°24'1212.3
2014-Aug-22 19:33N 55°03' E 014°09'1312.3
2014-Aug-22 18:30N 54°58' E 013°48'1212.4
2014-Aug-22 17:33N 54°54' E 013°29'1312.6
2014-Aug-22 16:33N 54°50' E 013°08'1211.8
2014-Aug-22 15:33N 54°46' E 012°49'1211.7
2014-Aug-22 14:33N 54°39' E 012°33'1212.2
2014-Aug-22 13:33N 54°31' E 012°17'1010.2
2014-Aug-22 12:33N 54°25' E 012°03'170 9.4
2014-Aug-21 18:31N 57°14' E 011°32'1212.5
2014-Aug-21 17:33N 57°25' E 011°25'1212.2
2014-Aug-21 16:33N 57°34' E 011°09'1212.5
2014-Aug-21 15:33N 57°43' E 010°52'1212.1
2014-Aug-21 14:33N 57°46' E 010°30'1313.3
2014-Aug-21 13:33N 57°42' E 010°07'3812.5
2014-Aug-21 10:30N 57°22' E 009°06'1212.9
2014-Aug-21 09:32N 57°15' E 008°47'16711.9
2014-Aug-20 19:31N 54°58' E 005°54'1111.9
2014-Aug-20 18:33N 54°49' E 005°43'6311.7
2014-Aug-20 13:07N 53°52' E 004°53'711.8
2014-Aug-20 12:30N 53°45' E 004°51'1111.7
2014-Aug-20 11:33N 53°34' E 004°48'2611.8
2014-Aug-20 09:19N 53°10' E 004°30'38 9.8
2014-Aug-20 05:27N 52°32' E 004°22'9 9.5
2014-Aug-20 04:33N 52°28' E 004°35'5 4.9
2014-Aug-20 03:33N 52°26' E 004°42'7 6.6
2014-Aug-20 02:34N 52°24' E 004°52'0 0.0
2014-Aug-20 01:34N 52°24' E 004°52'0 0.0
2014-Aug-20 00:31N 52°24' E 004°52'0 0.0
2014-Aug-19 23:33N 52°24' E 004°52'0 0.0
2014-Aug-19 22:33N 52°24' E 004°52'0 0.0
2014-Aug-19 21:33N 52°24' E 004°52'0 0.0
2014-Aug-19 20:34N 52°24' E 004°52'0 0.0
2014-Aug-19 19:33N 52°24' E 004°52'0 0.0
2014-Aug-19 18:32N 52°24' E 004°52'0 0.0
2014-Aug-19 17:32N 52°24' E 004°52'0 0.0
2014-Aug-19 16:33N 52°24' E 004°52'0 0.0
2014-Aug-19 15:33N 52°24' E 004°52'0 0.0
2014-Aug-19 14:34N 52°24' E 004°52'0 0.0
2014-Aug-19 13:33N 52°24' E 004°52'0 0.0
2014-Aug-19 12:33N 52°24' E 004°52'0 0.0
2014-Aug-19 11:33N 52°24' E 004°52'0 0.0
2014-Aug-19 10:34N 52°24' E 004°52'0 0.0
2014-Aug-19 09:34N 52°24' E 004°52'0 0.0
2014-Aug-19 08:33N 52°24' E 004°52'0 0.0
2014-Aug-19 07:32N 52°24' E 004°52'0 0.0
2014-Aug-19 06:32N 52°24' E 004°52'0 0.0
2014-Aug-19 05:33N 52°24' E 004°52'0 0.0
2014-Aug-19 04:33N 52°24' E 004°52'0 0.0
2014-Aug-19 03:34N 52°24' E 004°52'0 0.0
2014-Aug-19 02:33N 52°24' E 004°52'0 0.0
2014-Aug-19 01:33N 52°24' E 004°52'0 0.0
2014-Aug-19 00:34N 52°24' E 004°52'1 1.5
2014-Aug-18 23:33N 52°25' E 004°50'9 9.2
2014-Aug-18 22:34N 52°28' E 004°36'6 6.0
2014-Aug-18 21:33N 52°29' E 004°26'1010.1
2014-Aug-18 20:33N 52°28' E 004°10'6 5.0
2014-Aug-18 19:23N 52°25' E 004°01'0 0.0
2014-Aug-18 18:29N 52°25' E 004°01'0 0.1
2014-Aug-18 17:31N 52°25' E 004°01'0 0.0
2014-Aug-18 16:33N 52°25' E 004°01'0 0.0
2014-Aug-18 15:33N 52°25' E 004°01'0 0.0
2014-Aug-18 14:32N 52°25' E 004°01'0 0.0
2014-Aug-18 13:32N 52°25' E 004°01'0 0.0
2014-Aug-18 12:31N 52°25' E 004°01'0 0.0
2014-Aug-18 11:25N 52°25' E 004°01'0 0.1
2014-Aug-18 10:27N 52°25' E 004°01'0 0.1
2014-Aug-18 09:30N 52°25' E 004°01'0 0.1
2014-Aug-18 08:29N 52°25' E 004°01'0 0.1
2014-Aug-18 07:32N 52°25' E 004°01'0 0.1
2014-Aug-18 06:29N 52°25' E 004°01'0 0.1
2014-Aug-18 05:31N 52°25' E 004°00'0 0.1
2014-Aug-18 04:31N 52°25' E 004°00'0 0.1
2014-Aug-18 03:30N 52°25' E 004°00'0 0.1
2014-Aug-18 02:33N 52°25' E 004°00'0 0.1
2014-Aug-18 01:32N 52°25' E 003°60'0 0.0
2014-Aug-18 00:32N 52°25' E 003°60'0 0.0
2014-Aug-17 18:32N 52°25' E 003°60'1 0.9
2014-Aug-17 17:31N 52°26' E 004°01'0 0.0
2014-Aug-17 16:31N 52°26' E 004°01'0 0.0
2014-Aug-17 15:30N 52°26' E 004°01'0 0.0
2014-Aug-17 14:30N 52°26' E 004°01'0 0.0
2014-Aug-17 13:31N 52°26' E 004°01'0 0.0
2014-Aug-17 12:33N 52°26' E 004°01'0 0.0
2014-Aug-17 11:33N 52°26' E 004°01'0 0.0
2014-Aug-17 10:32N 52°26' E 004°01'0 0.0
2014-Aug-17 09:31N 52°26' E 004°01'0 0.0
2014-Aug-17 07:06N 52°26' E 004°01'0 0.0
2014-Aug-17 06:30N 52°26' E 004°01'0 0.1
2014-Aug-17 05:32N 52°26' E 004°01'0 0.0
2014-Aug-17 04:29N 52°26' E 004°01'0 0.0
2014-Aug-17 03:32N 52°26' E 004°01'0 0.1
2014-Aug-17 02:31N 52°26' E 004°01'0 0.0
2014-Aug-17 01:31N 52°26' E 004°01'0 0.0
2014-Aug-17 00:33N 52°26' E 004°01'0 0.0
2014-Aug-16 23:33N 52°26' E 004°01'0 0.1
2014-Aug-16 22:23N 52°26' E 004°01'0 0.0
2014-Aug-16 19:31N 52°26' E 004°01'0 0.0
2014-Aug-16 18:31N 52°26' E 004°01'0 0.0
2014-Aug-16 17:03N 52°26' E 004°01'0 0.0
2014-Aug-16 07:28N 52°26' E 004°01'0 0.0
2014-Aug-16 06:03N 52°26' E 004°01'0 0.1
2014-Aug-16 03:11N 52°26' E 004°01'0 0.0
2014-Aug-15 18:22N 52°26' E 004°01'0 0.0
2014-Aug-15 17:28N 52°26' E 004°01'0 0.1
2014-Aug-15 15:30N 52°26' E 004°01'0 0.0
2014-Aug-15 14:23N 52°26' E 004°00'0 0.0
2014-Aug-15 13:29N 52°26' E 004°00'0 0.0
2014-Aug-15 12:30N 52°26' E 004°00'0 0.0
2014-Aug-15 11:22N 52°26' E 004°00'0 0.0
2014-Aug-15 10:25N 52°26' E 004°00'6 6.6
2014-Aug-15 09:34N 52°29' E 004°08'41 7.8
2014-Aug-15 04:20N 53°09' E 004°21'6 7.7
2014-Aug-15 03:32N 53°14' E 004°26'23 7.5
2014-Aug-15 00:31N 53°31' E 004°50'8 7.9
2014-Aug-14 23:33N 53°34' E 005°02'8 7.5
2014-Aug-14 22:33N 53°36' E 005°15'7 6.7
2014-Aug-14 21:33N 53°38' E 005°25'6 6.3
2014-Aug-14 20:33N 53°40' E 005°36'6 6.2
2014-Aug-14 19:33N 53°42' E 005°45'7 6.7
2014-Aug-14 18:32N 53°45' E 005°56'60 7.6
2014-Aug-14 10:33N 53°59' E 007°35'15 7.6
2014-Aug-14 08:31N 53°52' E 007°58'1414.3
2014-Aug-14 07:33N 53°43' E 008°17'1514.9
2014-Aug-14 06:33N 53°32' E 008°34'1313.0
2014-Aug-14 05:33N 53°20' E 008°29'1110.8
2014-Aug-14 04:34N 53°10' E 008°37'4 4.3
2014-Aug-14 03:33N 53°07' E 008°43'0 0.2
2014-Aug-14 02:31N 53°08' E 008°43'0 0.0
2014-Aug-14 01:31N 53°08' E 008°43'0 0.0
2014-Aug-14 00:33N 53°08' E 008°43'0 0.0
2014-Aug-13 23:30N 53°08' E 008°43'0 0.0
2014-Aug-13 22:32N 53°08' E 008°43'0 0.0
2014-Aug-13 21:33N 53°08' E 008°43'0 0.0
2014-Aug-13 20:32N 53°08' E 008°43'0 0.0
2014-Aug-13 19:33N 53°08' E 008°43'0 0.0
2014-Aug-13 18:28N 53°08' E 008°43'0 0.0
2014-Aug-13 17:33N 53°08' E 008°43'0 0.0
2014-Aug-13 16:30N 53°08' E 008°43'0 0.0
2014-Aug-13 15:26N 53°08' E 008°43'0 0.0
2014-Aug-13 14:32N 53°08' E 008°43'0 0.0
2014-Aug-13 13:31N 53°08' E 008°43'0 0.0
2014-Aug-13 12:31N 53°08' E 008°43'0 0.0
2014-Aug-13 11:31N 53°08' E 008°43'0 0.0
2014-Aug-13 10:33N 53°08' E 008°43'0 0.0
2014-Aug-13 09:27N 53°08' E 008°43'0 0.0
2014-Aug-13 08:32N 53°08' E 008°43'0 0.0
2014-Aug-13 07:32N 53°08' E 008°43'0 0.0
2014-Aug-13 06:28N 53°08' E 008°43'0 0.0
2014-Aug-13 05:31N 53°08' E 008°43'0 0.0
2014-Aug-13 04:31N 53°08' E 008°43'0 0.0
2014-Aug-13 03:32N 53°08' E 008°43'  
Track history (hours):
 
Tides and Currents Weather Stations Pressure Air Temp Water Temp Dewpoint Dewpoint Depression Visibility Wind Speed Wind Dir Waves Ship Positions

Virginiborg

Last reported at 2014-Aug-23 03:04 UTC. Time now 2014-Sep-01 18:51 UTC.
Position N 55°56' E 016°21'.
Warning: this ship's position is 9 days out of date.

Length 132 m; draft 8 m.

Type: Cargo ship. MMSI: 244632000.

Date/timePositionNaut miles runAvg speedWind from/ knotsBaromVisibWave heightAir tempDewpointWater temp
2014-Aug-23 03:04N 55°56' E 016°21'3512.3
2014-Aug-23 00:12N 55°39' E 015°26'812.4
2014-Aug-22 23:32N 55°35' E 015°13'1212.4
2014-Aug-22 22:32N 55°29' E 014°54'1212.3
2014-Aug-22 21:33N 55°22' E 014°37'1312.5
2014-Aug-22 20:33N 55°12' E 014°24'1212.3
2014-Aug-22 19:33N 55°03' E 014°09'1312.3
2014-Aug-22 18:30N 54°58' E 013°48'1212.4
2014-Aug-22 17:33N 54°54' E 013°29'1312.6
2014-Aug-22 16:33N 54°50' E 013°08'1211.8
2014-Aug-22 15:33N 54°46' E 012°49'1211.7
2014-Aug-22 14:33N 54°39' E 012°33'1212.2
2014-Aug-22 13:33N 54°31' E 012°17'1010.2
2014-Aug-22 12:33N 54°25' E 012°03'170 9.4
2014-Aug-21 18:31N 57°14' E 011°32'1212.5
2014-Aug-21 17:33N 57°25' E 011°25'1212.2
2014-Aug-21 16:33N 57°34' E 011°09'1212.5
2014-Aug-21 15:33N 57°43' E 010°52'1212.1
2014-Aug-21 14:33N 57°46' E 010°30'1313.3
2014-Aug-21 13:33N 57°42' E 010°07'3812.5
2014-Aug-21 10:30N 57°22' E 009°06'1212.9
2014-Aug-21 09:32N 57°15' E 008°47'16711.9
2014-Aug-20 19:31N 54°58' E 005°54'1111.9
2014-Aug-20 18:33N 54°49' E 005°43'6311.7
2014-Aug-20 13:07N 53°52' E 004°53'711.8
2014-Aug-20 12:30N 53°45' E 004°51'1111.7
2014-Aug-20 11:33N 53°34' E 004°48'2611.8
2014-Aug-20 09:19N 53°10' E 004°30'38 9.8
2014-Aug-20 05:27N 52°32' E 004°22'9 9.5
2014-Aug-20 04:33N 52°28' E 004°35'5 4.9
2014-Aug-20 03:33N 52°26' E 004°42'7 6.6
2014-Aug-20 02:34N 52°24' E 004°52'0 0.0
2014-Aug-20 01:34N 52°24' E 004°52'0 0.0
2014-Aug-20 00:31N 52°24' E 004°52'0 0.0
2014-Aug-19 23:33N 52°24' E 004°52'0 0.0
2014-Aug-19 22:33N 52°24' E 004°52'0 0.0
2014-Aug-19 21:33N 52°24' E 004°52'0 0.0
2014-Aug-19 20:34N 52°24' E 004°52'0 0.0
2014-Aug-19 19:33N 52°24' E 004°52'0 0.0
2014-Aug-19 18:32N 52°24' E 004°52'0 0.0
2014-Aug-19 17:32N 52°24' E 004°52'0 0.0
2014-Aug-19 16:33N 52°24' E 004°52'0 0.0
2014-Aug-19 15:33N 52°24' E 004°52'0 0.0
2014-Aug-19 14:34N 52°24' E 004°52'0 0.0
2014-Aug-19 13:33N 52°24' E 004°52'0 0.0
2014-Aug-19 12:33N 52°24' E 004°52'0 0.0
2014-Aug-19 11:33N 52°24' E 004°52'0 0.0
2014-Aug-19 10:34N 52°24' E 004°52'0 0.0
2014-Aug-19 09:34N 52°24' E 004°52'0 0.0
2014-Aug-19 08:33N 52°24' E 004°52'0 0.0
2014-Aug-19 07:32N 52°24' E 004°52'0 0.0
2014-Aug-19 06:32N 52°24' E 004°52'0 0.0
2014-Aug-19 05:33N 52°24' E 004°52'0 0.0
2014-Aug-19 04:33N 52°24' E 004°52'0 0.0
2014-Aug-19 03:34N 52°24' E 004°52'0 0.0
2014-Aug-19 02:33N 52°24' E 004°52'0 0.0
2014-Aug-19 01:33N 52°24' E 004°52'0 0.0
2014-Aug-19 00:34N 52°24' E 004°52'1 1.5
2014-Aug-18 23:33N 52°25' E 004°50'9 9.2
2014-Aug-18 22:34N 52°28' E 004°36'6 6.0
2014-Aug-18 21:33N 52°29' E 004°26'1010.1
2014-Aug-18 20:33N 52°28' E 004°10'6 5.0
2014-Aug-18 19:23N 52°25' E 004°01'0 0.0
2014-Aug-18 18:29N 52°25' E 004°01'0 0.1
2014-Aug-18 17:31N 52°25' E 004°01'0 0.0
2014-Aug-18 16:33N 52°25' E 004°01'0 0.0
2014-Aug-18 15:33N 52°25' E 004°01'0 0.0
2014-Aug-18 14:32N 52°25' E 004°01'0 0.0
2014-Aug-18 13:32N 52°25' E 004°01'0 0.0
2014-Aug-18 12:31N 52°25' E 004°01'0 0.0
2014-Aug-18 11:25N 52°25' E 004°01'0 0.1
2014-Aug-18 10:27N 52°25' E 004°01'0 0.1
2014-Aug-18 09:30N 52°25' E 004°01'0 0.1
2014-Aug-18 08:29N 52°25' E 004°01'0 0.1
2014-Aug-18 07:32N 52°25' E 004°01'0 0.1
2014-Aug-18 06:29N 52°25' E 004°01'0 0.1
2014-Aug-18 05:31N 52°25' E 004°00'0 0.1
2014-Aug-18 04:31N 52°25' E 004°00'0 0.1
2014-Aug-18 03:30N 52°25' E 004°00'0 0.1
2014-Aug-18 02:33N 52°25' E 004°00'0 0.1
2014-Aug-18 01:32N 52°25' E 003°60'0 0.0
2014-Aug-18 00:32N 52°25' E 003°60'0 0.0
2014-Aug-17 18:32N 52°25' E 003°60'1 0.9
2014-Aug-17 17:31N 52°26' E 004°01'0 0.0
2014-Aug-17 16:31N 52°26' E 004°01'0 0.0
2014-Aug-17 15:30N 52°26' E 004°01'0 0.0
2014-Aug-17 14:30N 52°26' E 004°01'0 0.0
2014-Aug-17 13:31N 52°26' E 004°01'0 0.0
2014-Aug-17 12:33N 52°26' E 004°01'0 0.0
2014-Aug-17 11:33N 52°26' E 004°01'0 0.0
2014-Aug-17 10:32N 52°26' E 004°01'0 0.0
2014-Aug-17 09:31N 52°26' E 004°01'0 0.0
2014-Aug-17 07:06N 52°26' E 004°01'0 0.0
2014-Aug-17 06:30N 52°26' E 004°01'0 0.1
2014-Aug-17 05:32N 52°26' E 004°01'0 0.0
2014-Aug-17 04:29N 52°26' E 004°01'0 0.0
2014-Aug-17 03:32N 52°26' E 004°01'0 0.1
2014-Aug-17 02:31N 52°26' E 004°01'0 0.0
2014-Aug-17 01:31N 52°26' E 004°01'0 0.0
2014-Aug-17 00:33N 52°26' E 004°01'0 0.0
2014-Aug-16 23:33N 52°26' E 004°01'0 0.1
2014-Aug-16 22:23N 52°26' E 004°01'0 0.0
2014-Aug-16 19:31N 52°26' E 004°01'0 0.0
2014-Aug-16 18:31N 52°26' E 004°01'0 0.0
2014-Aug-16 17:03N 52°26' E 004°01'0 0.0
2014-Aug-16 07:28N 52°26' E 004°01'0 0.0
2014-Aug-16 06:03N 52°26' E 004°01'0 0.1
2014-Aug-16 03:11N 52°26' E 004°01'0 0.0
2014-Aug-15 18:22N 52°26' E 004°01'0 0.0
2014-Aug-15 17:28N 52°26' E 004°01'0 0.1
2014-Aug-15 15:30N 52°26' E 004°01'0 0.0
2014-Aug-15 14:23N 52°26' E 004°00'0 0.0
2014-Aug-15 13:29N 52°26' E 004°00'0 0.0
2014-Aug-15 12:30N 52°26' E 004°00'0 0.0
2014-Aug-15 11:22N 52°26' E 004°00'0 0.0
2014-Aug-15 10:25N 52°26' E 004°00'6 6.6
2014-Aug-15 09:34N 52°29' E 004°08'41 7.8
2014-Aug-15 04:20N 53°09' E 004°21'6 7.7
2014-Aug-15 03:32N 53°14' E 004°26'23 7.5
2014-Aug-15 00:31N 53°31' E 004°50'8 7.9
2014-Aug-14 23:33N 53°34' E 005°02'8 7.5
2014-Aug-14 22:33N 53°36' E 005°15'7 6.7
2014-Aug-14 21:33N 53°38' E 005°25'6 6.3
2014-Aug-14 20:33N 53°40' E 005°36'6 6.2
2014-Aug-14 19:33N 53°42' E 005°45'7 6.7
2014-Aug-14 18:32N 53°45' E 005°56'60 7.6
2014-Aug-14 10:33N 53°59' E 007°35'15 7.6
2014-Aug-14 08:31N 53°52' E 007°58'1414.3
2014-Aug-14 07:33N 53°43' E 008°17'1514.9
2014-Aug-14 06:33N 53°32' E 008°34'1313.0
2014-Aug-14 05:33N 53°20' E 008°29'1110.8
2014-Aug-14 04:34N 53°10' E 008°37'4 4.3
2014-Aug-14 03:33N 53°07' E 008°43'0 0.2
2014-Aug-14 02:31N 53°08' E 008°43'0 0.0
2014-Aug-14 01:31N 53°08' E 008°43'0 0.0
2014-Aug-14 00:33N 53°08' E 008°43'0 0.0
2014-Aug-13 23:30N 53°08' E 008°43'0 0.0
2014-Aug-13 22:32N 53°08' E 008°43'0 0.0
2014-Aug-13 21:33N 53°08' E 008°43'0 0.0
2014-Aug-13 20:32N 53°08' E 008°43'0 0.0
2014-Aug-13 19:33N 53°08' E 008°43'0 0.0
2014-Aug-13 18:28N 53°08' E 008°43'0 0.0
2014-Aug-13 17:33N 53°08' E 008°43'0 0.0
2014-Aug-13 16:30N 53°08' E 008°43'0 0.0
2014-Aug-13 15:26N 53°08' E 008°43'0 0.0
2014-Aug-13 14:32N 53°08' E 008°43'0 0.0
2014-Aug-13 13:31N 53°08' E 008°43'0 0.0
2014-Aug-13 12:31N 53°08' E 008°43'0 0.0
2014-Aug-13 11:31N 53°08' E 008°43'0 0.0
2014-Aug-13 10:33N 53°08' E 008°43'0 0.0
2014-Aug-13 09:27N 53°08' E 008°43'0 0.0
2014-Aug-13 08:32N 53°08' E 008°43'0 0.0
2014-Aug-13 07:32N 53°08' E 008°43'0 0.0
2014-Aug-13 06:28N 53°08' E 008°43'0 0.0
2014-Aug-13 05:31N 53°08' E 008°43'0 0.0
2014-Aug-13 04:31N 53°08' E 008°43'0 0.0
2014-Aug-13 03:32N 53°08' E 008°43'  

Dump ship's entire track history